events-overview

Kinetic Sprint

 

Overall Men

Lake Anna State Park - Spotsylvania, VA 5/15/2011 09:00AM

** Results are for the private use of participants and are the Intellectual Property of Set Up Events. Unauthorized use of these results is prohibited.

Place Bib Ag S NAME city/state Rank SWIM Rank T1 Rank BIKE Rank T2 Rank RUN PENALTY TIME DQ
111821MGrayson CobbBlacksburg VA900:10:44200:01:26300:42:42100:00:36200:17:22 01:12:49 
24924MBenjamin BartlettArlington VA1500:10:591300:01:34200:42:24400:00:41300:17:26 01:13:02 
348918MRyan PetersonRichmond VA400:10:07900:01:31400:43:20600:00:42700:18:07 01:13:45 
4739MTim MorrisRichmond VA1900:11:14400:01:26500:43:39700:00:45400:17:33 01:14:35 
52720MJoseph AndersonDulles VA1000:10:441000:01:321000:46:092900:00:52100:17:07 01:16:23 
645936MVaughan O'BrienWashington DC2300:11:293300:01:54100:42:238800:01:081600:19:1500:02:0001:18:07 
771922MChristopher BrownBlacksburg VA4300:12:203500:01:55600:44:362200:00:501500:19:15 01:18:53 
82626MJonathan AndersonFairfax VA2500:11:341400:01:35700:44:411400:00:473300:20:50 01:19:24 
927644MMarion HerringRichmond VA600:10:232600:01:472300:47:105100:01:001400:19:10 01:19:28 
1044217MDylan MorganFairfax Station VA1300:10:53500:01:265900:49:27200:00:39500:17:44 01:20:06 
114244MScott BaldwinReston VA3200:11:50100:01:231100:46:133600:00:562400:20:08 01:20:27 
1228927MAndrew HowardPoolesville MD4700:12:312900:01:511400:46:201100:00:461300:19:05 01:20:32 
1329727MJohn HutchinsonArlington VA200:10:004300:01:594600:48:565800:01:021200:19:00 01:20:54 
1423540MBrian GoebelVienna VA4100:12:135600:02:07900:45:532600:00:512900:20:35 01:21:37 
1521525MKyle FriisBrookeville MD3700:12:003600:01:554400:48:49800:00:45900:18:36 01:22:03 
1650621MAndrew ProvostBirmingham MI1600:11:001200:01:343200:48:182700:00:513700:21:06 01:22:47 
171739MRyan AlbrechtReston VA3500:11:586000:02:071300:46:176800:01:044800:21:29 01:22:53 
1833218MDane KingDeWitt VA4500:12:302000:01:423000:47:594400:00:581900:19:55 01:23:03 
1920228MErik FiskeArlington VA6200:12:581800:01:412600:47:433000:00:532300:20:08 01:23:21 
2042227MPeter McGuireVirginia Beach VA6100:12:57700:01:282200:47:093900:00:573400:20:52 01:23:21 
2157639MMichael SheehyWashington DC7400:13:1013000:02:372800:47:5314700:01:211000:18:49 01:23:48 
2248442MRick PerraultKeswick VA13000:14:24600:01:271900:46:541900:00:492700:20:26 01:23:59 
2361234MJason StayanovichWashington DC3300:11:5316100:02:523300:48:2116900:01:291800:19:40 01:24:13 
2436517MArmistead LeggeWinchester VA13400:14:292500:01:474700:49:031500:00:48800:18:21 01:24:26 
2520740MJake FoxWarrenton VA500:10:173100:01:523500:48:242500:00:513900:21:1000:02:0001:24:32 
2618114MStone DysonRichmond VA3400:11:531600:01:407300:50:25900:00:452100:20:00 01:24:41 
2764038MJohn TurnerMidlothian VA6500:13:023000:01:514500:48:533200:00:532500:20:11 01:24:49 
28849MSean OatmeyerWilliamsburg VA6000:12:548400:02:162100:47:057800:01:075300:21:47 01:25:06 
2942531MBrennan McReynoldsWashington Dc DC9100:13:384000:01:592900:47:563500:00:553200:20:44 01:25:09 
30223MMax BernardesKing George VA100:09:382800:01:507500:50:312100:00:506900:22:23 01:25:09 
PlaceBibAgSNAMEcity/stateRankSWIMRankT1RankBIKERankT2RankRUNPENALTYTIMEDQ
3137353MBolling LewisRichmond VA3800:12:017700:02:145200:49:154100:00:574900:21:31 01:25:57 
3212722MTyler CoquelinAnnandale VA1700:11:096400:02:105400:49:181200:00:467700:22:41 01:26:02 
3315043MBill DeatonRuckersville VA12000:14:122700:01:491600:46:424200:00:577300:22:28 01:26:05 
3461835MAdam StolzbergArlington VA20300:15:598100:02:152400:47:1212700:01:171700:19:31 01:26:11 
3551736MSean ReinckeEast New Market MD12200:14:132100:01:438000:50:332300:00:501100:18:54 01:26:12 
3620433MJames FoggKensington MD15800:15:004900:02:021200:46:164800:00:596700:22:22 01:26:36 
3762137MDavid StubbsCulpeper VA11400:14:0912600:02:361500:46:3010100:01:117200:22:28 01:26:51 
3860522MParker SpencerForest VA16700:15:06300:01:269900:51:351300:00:47600:18:00 01:26:52 
3957149MRay SeligCharlottesville VA7600:13:145800:02:071700:46:4914400:01:2110600:23:28 01:26:55 
4063334MMichael ThorntonMoseley VA5900:12:545900:02:073800:48:4112800:01:176200:22:03 01:27:00 
4137435MMonte LewisMontgomery Village MD14600:14:411500:01:363400:48:2412300:01:163800:21:07 01:27:02 
4258052MLee SherbakoffArlington VA11500:14:094200:01:595300:49:165500:01:013000:20:39 01:27:03 
4312851MWilliam CoquelinAlexandria VA8400:13:2310000:02:243900:48:424500:00:585400:21:47 01:27:13 
4425737MIgor GureyevBealeton VA16800:15:076200:02:083600:48:257700:01:063100:20:40 01:27:25 
4527731MJoey HessFredericksburg VA1800:11:129100:02:2011900:52:517500:01:062000:19:59 01:27:26 
4641216MDaniel McAllisterLeesburg VA300:10:031700:01:4012500:53:11500:00:425600:21:52 01:27:26 
4717742MDouglas DudgeonStafford VA800:10:4110500:02:267600:50:3116700:01:287000:22:25 01:27:28 
4839624MKevin MallonSpringfield VA2100:11:222300:01:467700:50:315600:01:023500:20:5900:02:0001:27:37 
4926335MWilliam HancockWashington DC7700:13:155400:02:064100:48:4213000:01:186800:22:22 01:27:42 
502445MDaniel AndersonRockville MD7800:13:1616700:02:554200:48:4611400:01:145000:21:33 01:27:43 
5140639MJack MasihOakton VA17600:15:115000:02:022000:46:569900:01:117600:22:37 01:27:55 
5261120MBobby StanleyBerryville VA12400:14:186900:02:118300:50:451000:00:462200:20:05 01:28:03 
5355832MEric SaulTakoma Park MD8500:13:323800:01:578400:50:468500:01:084100:21:17 01:28:38 
5441447MWayne McAllisterLeesburg VA5400:12:473200:01:536700:50:0610600:01:128000:22:50 01:28:46 
5545749MJose ObandoOak Hill VA10300:13:5712500:02:354900:49:0815100:01:225700:21:53 01:28:53 
5619639MMatthew FergusonWashington DC13300:14:274600:02:011800:46:514300:00:5814700:24:46 01:29:01 
5753431MDouglas RogersRockville MD5700:12:512400:01:466900:50:167000:01:048900:23:06 01:29:01 
5834224MJoe KrasinskasFalls Church VA6600:13:0315000:02:458700:51:0114800:01:214300:21:20 01:29:28 
5935556MPerry LangeVirginia Beach VA3100:11:487800:02:146600:50:0011500:01:1412800:24:20 01:29:35 
605635MErik BeatleyWinchester VA9300:13:417400:02:145000:49:137200:01:0510800:23:30 01:29:42 
6127337MDavid HenshawArlington VA9800:13:508000:02:152700:47:5226000:02:0511600:23:47 01:29:47 
PlaceBibAgSNAMEcity/stateRankSWIMRankT1RankBIKERankT2RankRUNPENALTYTIMEDQ
6244343MKenneth MorrisMiddletown VA21400:16:1320900:03:17800:45:3117300:01:3010400:23:24 01:29:53 
6345649MMark OakesHighland MD5100:12:3918000:03:005100:49:1420400:01:4110500:23:26 01:29:59 
642840MJason AngelGlen Allen VA15900:15:003400:01:542500:47:316300:01:0314100:24:33 01:29:59 
6561441MDamon SteeleClarksburg MD1100:10:488200:02:157400:50:296000:01:0216700:25:30 01:30:03 
6668241MDarren WrigleyWarrenton VA9200:13:395300:02:066800:50:123400:00:549400:23:16 01:30:04 
6768542MMark YurishStaunton VA18000:15:137500:02:149200:51:148000:01:072600:20:25 01:30:10 
6831638MVedat KaplanFrederick MD7900:13:203900:01:575500:49:181600:00:4815000:24:52 01:30:13 
6911430MKyle ClarkArlington VA2000:11:187000:02:1210900:52:155200:01:0011300:23:41 01:30:23 
7015330MPaul DelzerWashington DC12700:14:197100:02:126500:49:539300:01:108400:22:57 01:30:29 
7149235MJustin PierceWoodbridge VA18800:15:32800:01:294800:49:0410900:01:134000:21:1400:02:0001:30:30 
7230853MJames JeremiahFairfax VA8100:13:2112400:02:3411800:52:5016200:01:252800:20:31 01:30:39 
7334135MDarren KorverMidlothian VA10800:14:059600:02:216200:49:4320300:01:418200:22:53 01:30:42 
7445446MDavid NystromVienna VA12300:14:157900:02:143700:48:399100:01:0914200:24:33 01:30:48Y
7531541MAdrian JoyeBrandy Station VA13500:14:319000:02:198200:50:393100:00:537400:22:31 01:30:50 
7664727MRyan VearArlington VA8600:13:3210200:02:264300:48:4817400:01:3014500:24:41 01:30:55 
778059MSteve BradleyPurcellville VA10600:14:035200:02:027100:50:1810400:01:1110300:23:22 01:30:55 
7831950MPhillip KardisFalls Church VA11000:14:0613700:02:409000:51:0916800:01:295200:21:43 01:31:06 
7925439MCarter GroomeWashington DC2900:11:441900:01:4216700:55:0512000:01:154500:21:25 01:31:09 
8063649MGreg TuckMechanicsville VA18100:15:1711900:02:319800:51:328900:01:093600:21:01 01:31:28 
8166039MJeff WebbArlington VA6300:12:596700:02:119700:51:307600:01:0611400:23:46 01:31:30 
8265434MChris WaltersWashington DC3600:11:5911600:02:3014600:54:025400:01:016300:22:09 01:31:40 
834643MCharles BarnesVienna VA20500:16:0217000:02:567900:50:329400:01:104200:21:17 01:31:55 
8467546MLawson WilderBethesda MD11200:14:079300:02:205600:49:2121100:01:4413300:24:25 01:31:56 
8549941MChuck PotterGermantown MD15300:14:488300:02:165800:49:234900:00:5914900:24:51 01:32:15 
8618855MJohn ErbAlexandria VA1200:10:5112200:02:327800:50:327100:01:0422200:27:38 01:32:35 
8759449MScott SmallwoodArlington VA18600:15:2914300:02:4310200:51:4213900:01:204600:21:25 01:32:38 
8868646MDavid ZemoCulpeper VA8300:13:2212700:02:367200:50:252800:00:5216300:25:26 01:32:39 
8916737MJames DillonMidlothian VA18300:15:2513600:02:408600:50:589700:01:117500:22:34 01:32:45 
9056932MErik ScudderFairfax VA11700:14:1120000:03:1210500:52:0720100:01:415100:21:40 01:32:50 
9123931MBrett GombarBlacksburg VA2400:11:339400:02:2014100:53:526500:01:0312500:24:09 01:32:55 
9262636MJon TaillonArlington VA12800:14:205100:02:029100:51:1015300:01:2212400:24:07 01:32:59 
PlaceBibAgSNAMEcity/stateRankSWIMRankT1RankBIKERankT2RankRUNPENALTYTIMEDQ
935234MJustin BauerArlington VA13100:14:269900:02:2410400:52:007900:01:079000:23:06 01:33:01 
9419131MChris FarajiArlington VA5600:12:4920100:03:1311100:52:265300:01:0011200:23:40 01:33:06 
956734MTim BerryBeckley WV6900:13:056300:02:1013800:53:438600:01:088700:23:03 01:33:07 
9615452MJoe DemarestWashington Dc DC8900:13:3725700:03:595700:49:2128200:02:1812200:24:00 01:33:12 
9767038MTodd WestermanLigonier PA10900:14:0611800:02:309300:51:1623400:01:5310700:23:29 01:33:12 
9812236MJesse CondeStafford VA14300:14:374400:01:5910100:51:3711800:01:1411900:23:56 01:33:22 
994757MDennis BarrRidge MD14400:14:384500:02:006300:49:436400:01:0318600:26:00 01:33:22 
10010037MDavid Callaway JrStafford VA5000:12:383700:01:5518100:55:468700:01:086400:22:11 01:33:37 
10121331MBrad FreySterling VA11900:14:1213100:02:378500:50:5416000:01:2514300:24:33 01:33:37 
10213646MKevin CrislerAmissville VA11300:14:088800:02:183100:48:116600:01:0422900:27:59 01:33:38 
10323458MStephen GodwinBethesda MD5500:12:4918600:03:0311300:52:342000:00:4913500:24:27 01:33:41 
10419832MJohn FerriterAlexandria VA3000:11:477200:02:1215600:54:335900:01:0213600:24:27 01:34:00 
10514631MDeb DasguptaWashington DE5300:12:4523800:03:4215000:54:1824000:01:544700:21:25 01:34:03 
1064116MKevin BaldwinReston VA16000:15:012200:01:4515500:54:324000:00:575800:21:58 01:34:12 
10766827MTravis WestbrookTakoma Park MD26300:18:0510900:02:286400:49:4620600:01:426500:22:15 01:34:13 
10816058MChris DettmarReston VA12100:14:1321200:03:209500:51:2722300:01:4910900:23:31 01:34:18 
10957436MCharles ShedrickArlington VA12900:14:2115600:02:5010600:52:0812600:01:1711500:23:47 01:34:22 
1109437MMike BrownSpotsylvania VA8000:13:2021300:03:2210700:52:0927200:02:1210200:23:21 01:34:23 
111432MRyan HessVirginia Beach VA7500:13:139700:02:2214800:54:128200:01:0711000:23:38 01:34:30 
11254229MKevin RosenblumArlington VA8700:13:3419000:03:0413200:53:2320200:01:418300:22:54 01:34:34 
11346848MKen PakulaAlexandria VA4000:12:045700:02:0715300:54:259500:01:1015200:24:57 01:34:40 
11430326MJosh JarrelsMount Crawford VA19800:15:5011400:02:3013400:53:266200:01:035900:21:59 01:34:45 
11556739MMatthew SchwabelBarboursville VA20200:15:5816900:02:5611000:52:229000:01:097100:22:25 01:34:48 
11663148MJohn ThomasNorfolk VA21500:16:2013800:02:418800:51:0718800:01:359900:23:19 01:34:59 
11722137MEric GargesKensington MD19300:15:3719600:03:0910000:51:3617200:01:299600:23:17 01:35:07 
11859043MMichael SimpsonSilver Spring MD14500:14:4022500:03:2812700:53:1720000:01:406600:22:20 01:35:24 
1191432MEmmitt AdkinsRoanoke VA11800:14:1118300:03:0211200:52:2727500:02:1311100:23:39 01:35:32 
1201315MMikie AdamsVirginia Beach VA2800:11:418500:02:1618600:56:0518600:01:3412100:23:58 01:35:33 
12121234MScott FrenchFairfax VA5800:12:5217500:02:5816600:55:0419400:01:389300:23:11 01:35:42 
12244645MCasey MurrayGlen Allen VA21200:16:1028000:04:318100:50:3814900:01:218800:23:04 01:35:42 
1231526MTrevor AlbertWilliamsburg VA26400:18:086500:02:108900:51:095700:01:029800:23:18 01:35:44 
PlaceBibAgSNAMEcity/stateRankSWIMRankT1RankBIKERankT2RankRUNPENALTYTIMEDQ
12446147MMichael OconnorArlington VA9900:13:5217400:02:5813100:53:2216400:01:2513900:24:29 01:36:04 
12532527MZach KellyLynchburg VA8200:13:229200:02:2018400:55:5522600:01:507800:22:46 01:36:11 
12631740MDavid KarasikRockville MD19500:15:4213900:02:4112100:52:5810500:01:1111700:23:48 01:36:19 
12737535MThomas LewisWashington DC19700:15:4914800:02:4511400:52:3823100:01:529700:23:18 01:36:20 
12813537MPaul CrawfordMemphis TN11600:14:1122700:03:2915900:54:3813300:01:197900:22:47 01:36:21 
12910150MScott CampbellRichmond VA15000:14:4515900:02:5113500:53:2613100:01:1812900:24:21 01:36:39 
1308431MKevin Boyle 16100:15:0123200:03:3412600:53:1218700:01:3410100:23:19 01:36:39 
13145230MAlex NickodemAtlantic Beach FL7000:13:0711200:02:2915800:54:3417100:01:2915500:25:02 01:36:40 
13226545MJohn HannanAlexandria VA10700:14:0517200:02:5713900:53:469800:01:1114600:24:45 01:36:41 
1337753MRobert BosleyVirginia Beach VA9700:13:4914400:02:4413600:53:3311900:01:1417300:25:42 01:37:00 
13464625MVal VasquezWashington DC18400:15:258900:02:1810300:51:5919100:01:3518000:25:50 01:37:05 
13524839MEric GreenWashington DC22000:16:3113300:02:3816100:54:4217700:01:315500:21:52 01:37:12 
13610321MMichael Cariello NoblitManassas VA10400:13:5826000:04:0415700:54:3421900:01:478100:22:53 01:37:13 
13722931MMorgan GickNew York NY2600:11:3617900:03:0016300:54:5222000:01:4819100:26:10 01:37:24 
13843949MSean MolloyRockville MD23200:16:5617800:03:006000:49:2925300:02:0018800:26:07 01:37:30 
13966433MChad WelchWilliamsburg VA22200:16:4010800:02:2814700:54:046900:01:0410000:23:19 01:37:32 
14062524MBen TaggartWashington DC23900:17:0623300:03:3412200:52:5824500:01:566000:22:00 01:37:33 
14118424MBen EisenWashington DC16400:15:037600:02:1417300:55:31300:00:3912600:24:11 01:37:35 
14245343MPaul NovakApex NC13600:14:3124000:03:449400:51:1818900:01:3519800:26:30 01:37:36 
14334825MBrowning JeremyWashington DC16200:15:0215300:02:4814300:53:5827600:02:1412000:23:57 01:37:58 
14450936MStefan RaabSouth Riding VA4600:12:3111700:02:3019700:56:2311700:01:1416200:25:23 01:38:01 
14540336MPeter ManternachBristow VA22100:16:3422400:03:2812800:53:1922900:01:519200:23:08 01:38:17 
14656649MIra SchulmanCharlottesville VA24100:17:0715800:02:5110800:52:138300:01:0715700:25:05 01:38:21 
1479334MMike BrownBrambleton VA26100:17:589500:02:2117000:55:202400:00:506100:22:01 01:38:28 
1482555MJacob AndersonVirginia Beach VA14800:14:426600:02:109600:51:2814100:01:2024100:28:49 01:38:29 
14922440MPaul GearonSpotsylvania VA10200:13:556800:02:1115400:54:2523000:01:5218900:26:09 01:38:30 
15032029MEli KaseArlington VA4400:12:264100:01:5920700:56:4422500:01:5017200:25:38 01:38:34 
15112343MDavid ConnorFairfax VA12500:14:1912900:02:3716200:54:4812400:01:1617600:25:43 01:38:40 
1526233MRhyne BenigaOxon Hill MD22600:16:489800:02:2313300:53:2511000:01:1315300:25:00 01:38:47 
15315620MMichael DeneenWindsor CT4800:12:3515700:02:5122300:58:0013200:01:1912700:24:16 01:38:58 
15416558MBruce DiciccoAstoria NY15600:14:5220500:03:1617200:55:2628500:02:199100:23:07 01:38:59 
PlaceBibAgSNAMEcity/stateRankSWIMRankT1RankBIKERankT2RankRUNPENALTYTIMEDQ
15558229MBradford ShipAlexandria VA13900:14:345500:02:0614200:53:561800:00:4923000:27:59 01:39:23 
15653052MJeffrey RobinsRockville MD17800:15:1224300:03:4611700:52:4823800:01:5418400:25:51 01:39:29 
15740731MJohn MatlockArlington VA8800:13:3410400:02:2619200:56:1416500:01:2618300:25:51 01:39:29 
15864245MDaniel ValencicMcLean VA6400:13:0021600:03:2521000:56:4615800:01:2415400:25:02 01:39:35 
15959633MBrandon SmithRichmond VA10100:13:5519800:03:0916000:54:3919900:01:4020500:26:41 01:40:02 
16043028MMarcus MeyerChantilly VA16900:15:0920700:03:1715200:54:2222800:01:5016500:25:29 01:40:04 
16134415MJohn KremarMooresville NC17400:15:1025400:03:5814900:54:1513700:01:1917100:25:37 01:40:18 
16265033MSergey VolkovSpringfield VA22400:16:4316500:02:5520000:56:2911100:01:138500:22:59 01:40:19 
16318930MBryan EvangelistaWashington DC1400:10:5814200:02:4224800:59:5610200:01:1116900:25:36 01:40:21 
16413340MGregory CrabbBroadlands VA13800:14:3321000:03:1714000:53:4719300:01:3821400:27:12 01:40:26 
16566336MJoe WeinsteinWashington DC7100:13:0815500:02:5022200:57:5918000:01:3216100:25:19 01:40:46 
16631815MAlexander KardisFalls Church VA4200:12:1722000:03:2721800:57:426700:01:0419500:26:22 01:40:51 
16732250MChris KavanaghVienna VA19100:15:3425000:03:5312400:53:0821600:01:4619900:26:34 01:40:54 
16846433MChristopher OwensAlexandria VA15400:14:4912300:02:3419000:56:107400:01:0619300:26:17 01:40:55 
16940032MSam ManessArlington VA20400:16:018700:02:1718900:56:1013500:01:1916000:25:16 01:41:01 
17055442MJeffrey SalmonSouth Riding VA24900:17:3023900:03:4311500:52:4215900:01:2417700:25:44 01:41:01 
17130526MDane JeeterEllicott City MD17900:15:1319700:03:0919300:56:1411600:01:1415900:25:16 01:41:04 
17244952MAl NavidiRockville MD27500:18:5816400:02:5513700:53:3817800:01:3113100:24:25 01:41:25 
17348827MMatthew PetersonFayetteville NC24400:17:1317300:02:5717700:55:3713600:01:1913800:24:28 01:41:31 
17463929MMalai TurnbullArlington VA18900:15:3317600:02:5821300:57:1416600:01:2713000:24:22 01:41:33 
1759945MJohn CaldwellFairfax VA15700:14:5919900:03:1122500:58:1515000:01:2212300:24:00 01:41:45 
17611746MMarvin ClineMoseley VA30000:20:2518200:03:026100:49:3524100:01:5521000:26:51 01:41:46 
17747650MKenneth PearceMechanicsville VA15500:14:5014700:02:4420300:56:3621400:01:4519000:26:10 01:42:03 
17851147MMark RaifordAmissville VA9400:13:4210100:02:2518300:55:5411200:01:1424200:28:52 01:42:04 
17953141MJaime RocaPotomac MD17300:15:1013200:02:3821700:57:3810300:01:1116600:25:30 01:42:05 
1803246MDelmar ArnoldWinchester VA23300:16:5816800:02:567000:50:1723300:01:5326200:30:04 01:42:06 
181148MWhit BaldwinRichmond VA21300:16:118600:02:1718800:56:0712100:01:1619700:26:25 01:42:13 
18260645MRichard SpencerFairfax VA7200:13:1018100:03:0024600:59:3424900:01:5914000:24:32 01:42:14 
18348643MJohn PetersonLeesburg VA20900:16:0625100:03:5417500:55:3328400:02:1913700:24:27 01:42:18 
18429831MJp HylandWashington DC17500:15:1029100:04:4420100:56:3125200:02:0011800:23:56 01:42:19 
18522367MDavid GearinArlington VA23600:17:0522900:03:3011600:52:4529400:02:3819600:26:23 01:42:19 
PlaceBibAgSNAMEcity/stateRankSWIMRankT1RankBIKERankT2RankRUNPENALTYTIMEDQ
18643721MPatrick MohlWoodbine MD15200:14:4712000:02:3125901:00:3415700:01:249500:23:16 01:42:30 
18733443MThomas KingCentreville VA9500:13:4421800:03:2621200:56:5712200:01:1621500:27:13 01:42:34 
18855150MJohn SabelhausSilver Spring MD6800:13:0416300:02:5417900:55:4221800:01:4624900:29:12 01:42:37 
18953948MGraham RoseMidlothian VA18200:15:2117700:02:5919600:56:1710800:01:1321100:26:58 01:42:46 
19029540MHunter HutchensHerndon VA21100:16:0910700:02:2815100:54:2020800:01:4323300:28:15 01:42:52 
19112940MSteve CorenAlexandria VA30100:21:2121700:03:2618500:56:043700:00:564400:21:21 01:43:06 
19211545MRich ClarkHerndon VA20100:15:5618900:03:0414500:54:0230400:02:5121800:27:28 01:43:19 
19365658MTaylor WardConway NC23700:17:0518700:03:0316400:54:5821700:01:4620800:26:48 01:43:39 
19468038MRussell WodiskaFalls Church VA16300:15:0316600:02:5522700:58:2417000:01:2918700:26:04 01:43:54 
19523844MDavid GogolkiewiczManassas VA9600:13:4719400:03:0623100:58:3224700:01:5820700:26:48 01:44:08 
19652730MJonathan RileyFredericksburg VA16500:15:0410300:02:2621400:57:2523200:01:5321600:27:25 01:44:11 
19730928MBrian JohnsonAlexandria VA18500:15:2813500:02:4025201:00:105000:01:0015100:24:56 01:44:11 
19837050MBrian LeonardOak Hill VA22800:16:5121500:03:2320400:56:3818300:01:3418100:25:50 01:44:14 
19943549MAnthony MitchellFort Washington MD21600:16:2226200:04:0519500:56:1726200:02:0616800:25:35 01:44:23 
20013250MPete CoughlinCentreville VA30200:21:3023700:03:4212900:53:1919600:01:3913400:24:27 01:44:35 
20160825MAlex SpotswoodWashington DC5200:12:4229300:04:4525601:00:1625600:02:0215600:25:03 01:44:47 
20226727MBrendan HanrahanBeltsville MD14900:14:4425300:03:5820800:56:4525100:02:0022100:27:30 01:44:55 
2034440MTom BarbieriReston VA10000:13:5427000:04:1619800:56:2430000:02:4522500:27:45 01:45:03 
20425947MParker HaleRichmond VA15100:14:4618500:03:0323900:58:5225700:02:0320000:26:34 01:45:17 
20551544MStephen RaunerAlexandria VA17000:15:0924600:03:4820600:56:4214000:01:2023700:28:26 01:45:23 
20633339MJohn KingGlen Allen VA26500:18:1812800:02:3617100:55:2214500:01:2122600:27:49 01:45:25 
20747433MAlan PattersonVirginia Beach VA26900:18:366100:02:0822400:58:028400:01:0817400:25:43 01:45:34 
20810529MJustin CastleSpingfield VA26700:18:3222100:03:2723000:58:2926600:02:088600:23:02 01:45:35 
209928MJoshua AbbeLunchburg VA           01:45:45 
21017430MBobby DrakeGlen Allen VA28900:19:4812100:02:3220900:56:4612900:01:1816400:25:28 01:45:49 
21126134MJames HammerGloucester VA27000:18:474800:02:0213000:53:219600:01:1027100:30:49 01:46:08 
21260145MTodd SmithLorton VA11100:14:0719200:03:0426601:01:1318500:01:3419200:26:12 01:46:09 
21366741MPete WendtGlen Allen VA25100:17:3318400:03:0319100:56:1222400:01:4922800:27:51 01:46:25 
21433631MDrew KlammerGlen Allen VA2700:11:3911000:02:2826001:00:488100:01:0726500:30:32 01:46:32 
21542961MBrad MetcalfRichmond VA19200:15:3722600:03:2923300:58:3529900:02:4519400:26:18 01:46:41 
21652135MJason ReynoldsWinchester VA23400:17:0325500:03:5921500:57:2622700:01:5020400:26:38 01:46:53 
PlaceBibAgSNAMEcity/stateRankSWIMRankT1RankBIKERankT2RankRUNPENALTYTIMEDQ
2175931MJoseph BednarRichmond VA29800:20:1914500:02:4417800:55:4124600:01:5720600:26:42 01:47:20 
21816226MMichael Di MarcoWashington DC30300:21:5729700:05:0612300:53:0329600:02:4214800:24:47 01:47:33 
21953754MChuck RomeoRockville MD28100:19:1929900:05:1018200:55:5026800:02:0815800:25:11 01:47:36 
22059745MBrian SmithAlexandria VA24800:17:2610600:02:2719400:56:1617600:01:3126100:30:01 01:47:39 
22146053MBob OconnorWake Forest NC23800:17:0620200:03:1317600:55:3424400:01:5625900:29:57 01:47:45 
22262057MThomas StroupGreat Falls VA6700:13:044700:02:014000:48:423300:00:5331100:43:08 01:47:47 
2234346MDario BarattoArlington VA26800:18:3322800:03:2920500:56:404700:00:5923200:28:11 01:47:49 
22465338MTim WalkawiczFalls Church VA4900:12:3630200:05:2016500:55:0329300:02:3628500:32:27 01:48:01 
22523248MKeith GlowackiHenrico VA23100:16:5111300:02:3019900:56:2725800:02:0326400:30:15 01:48:04 
22623043MJustin GilbertOak Hill VA19000:15:3314000:02:4127301:01:5417500:01:3120100:26:36 01:48:12 
22758725MRichard SimeoniArlington VA31100:23:1614900:02:4516800:55:0719200:01:3617000:25:36 01:48:19 
22847237MMark ParthSpringfield VA24300:17:1017100:02:5621100:56:5222100:01:4825300:29:43 01:48:27 
22958651MAllen SimcoeFredericksburg VA21700:16:3026500:04:1014400:54:0130600:02:5527500:31:10 01:48:43 
23043638MKenneth MitchellFredericksburg VA14100:14:3514100:02:4127201:01:5417900:01:3223500:28:17 01:48:57 
23150144MOliver PottsArlington VA29100:19:5319100:03:0425801:00:2810000:01:1113200:24:25 01:48:59 
23249131MManh PhamReston VA30400:22:1220300:03:1518700:56:0720700:01:4217900:25:48 01:49:01 
23354330MJb RossonHarrisonburg VA25200:17:4021400:03:2318000:55:4223900:01:5426800:30:41 01:49:19 
23446742MDavid Paget-BrownKeswick VA25600:17:4714600:02:4424900:59:5723500:01:5321200:27:01 01:49:20 
23554656MRick RowlandColonial Heights VA24500:17:207300:02:1325701:00:2625400:02:0021700:27:25 01:49:24 
23625539MEugene GuilaranAlexandria VA20800:16:0518800:03:0324300:59:1620900:01:4325100:29:24 01:49:29 
2377855MEd BoyleSandy Hook VA13700:14:3115400:02:5024400:59:1913400:01:1927800:31:35 01:49:33 
2385541MJohn BeachleyWarrenton VA29000:19:5322300:03:2820200:56:3614200:01:2023600:28:22 01:49:36 
23937937MJimmy LoHyattsville MD27300:18:5126900:04:1523600:58:4928300:02:1817500:25:43 01:49:53 
2408337MSean BrazielArlington VA28600:19:4419300:03:0521600:57:3715600:01:2423100:28:11 01:49:59 
24113754MTroy CritesMineral VA26200:18:0429400:04:5121900:57:4413800:01:1924400:28:52 01:50:49 
24222537MDavid GelfondFalls Church VA21000:16:0823600:03:4222800:58:2529800:02:4425600:29:51 01:50:49 
24316828MNate DissmeyerMiddle River MD18700:15:3116000:02:5226701:01:307300:01:0525700:29:54 01:50:51 
24438641MDov LutzkerArlington VA27600:19:0630100:05:1823700:58:5021200:01:4418500:25:57 01:50:53 
24561039MMark StankiewiczAlexandria VA25500:17:4515200:02:4824500:59:2710700:01:1225800:29:55 01:51:05 
24614159MSteve CrumleyBumpass VA7300:13:1024800:03:4927101:01:4523600:01:5326900:30:42 01:51:17 
24726635MSean HanniganChantilly VA13200:14:2623500:03:4126801:01:4330100:02:4724600:29:00 01:51:35 
PlaceBibAgSNAMEcity/stateRankSWIMRankT1RankBIKERankT2RankRUNPENALTYTIMEDQ
24823361MStephen GoddardAlexandria VA10500:14:0128100:04:3223500:58:4929200:02:3427900:31:42 01:51:36 
24916953MJohn DisterReston VA16600:15:0629000:04:4323800:58:5226400:02:0727300:30:54 01:51:38 
25014966MJohn DeanAlexandria VA24200:17:0724900:03:5127501:02:1319700:01:3921900:27:28 01:52:17 
25160316MJack SoulenNorfolk VA19900:15:5528200:04:3323400:58:396100:01:0226300:30:1000:02:0001:52:17 
2524029MDaniel BalberchakOakton VA19600:15:4826100:04:0428201:04:1021300:01:4520300:26:38 01:52:22 
25367945MCharles WittmannRichmond VA26600:18:25      22000:27:28 01:52:22 
25463748MPaul TuckerWoodbridge VA27800:19:0824500:03:4725301:00:1120500:01:4122400:27:41 01:52:26 
25525336MTim GretenArlington VA9000:13:3719500:03:0724100:59:0719500:01:3929600:35:12 01:52:39 
25657337MJason SfaelosSouth Riding VA24000:17:0724100:03:4425101:00:0618200:01:3327000:30:49 01:53:16 
25742460MBill McManusStafford VA29600:20:0527900:04:3116900:55:1223700:01:5425400:29:4300:02:0001:53:23 
25867147MTed WhalenReston VA17700:15:1226600:04:1128601:05:0730500:02:5220200:26:37 01:53:56 
25919551MRick FayyadRockville MD27100:18:4920600:03:1622000:57:4624300:01:5628400:32:13 01:53:58 
26010235MAdam CampionMiddletown MD3900:12:0228800:04:3924200:59:1027900:02:1630100:36:10 01:54:16Y
26112430MJarrett ConwayRockville MD31300:25:1116200:02:5317400:55:324600:00:5925200:29:43 01:54:16 
26245139MSteve NguyenAshburn VA29300:19:5830800:05:3626301:01:0424200:01:5518200:25:51 01:54:23 
26345516MQuinn NystromVienna VA20700:16:0523000:03:3026101:00:489200:01:0928900:32:59 01:54:30 
26451337MCyrus RamseyMcLean VA31000:22:5923100:03:3012000:52:5228000:02:1628800:32:59 01:54:34 
26528053MJoe HigginsSpringfield VA24600:17:2230600:05:2827901:03:4028700:02:2517800:25:46 01:54:40 
26652465MRick RiceBurke VA23500:17:0330900:05:3927401:02:0224800:01:5823800:28:32 01:55:12 
26711051MJim CharapichCulpeper VA24700:17:2623400:03:3625401:00:1318100:01:3228700:32:57 01:55:42 
26842042MTim McGonigleArlington VA30900:22:5120400:03:1624000:58:5225500:02:0124800:29:07 01:56:05 
26926842MAndrew HartVirginia Beach VA21800:16:3028900:04:4124700:59:4030300:02:5028600:32:55 01:56:35 
27035149MKevin KurtzWest Chester PA20000:15:5621100:03:1925000:59:5719800:01:4029800:35:56 01:56:46 
27160447MJonathan SoulenNorfolk VA25800:17:5126400:04:0825501:00:1515500:01:2329100:33:45 01:57:20 
27247726MBryan PeckPetersburg VA21900:16:3130300:05:2128701:05:4230700:03:0320900:26:51 01:57:26 
27367322MMicah Subar 14700:14:4226300:04:0822100:57:4826900:02:0930700:38:55 01:57:41 
27429270MJoseph HulingsBurke VA22300:16:4215100:02:4728101:04:0928100:02:1728000:31:49 01:57:42 
27528255MMichael HillFairfax VA27400:18:5429600:05:0426501:01:0827100:02:1126700:30:39 01:57:54 
27667227MDenis WhelanWashington DC22900:16:5120800:03:1728801:05:4627400:02:1325500:29:49 01:57:54 
27736659MGary LehmanChesapeake VA30800:22:3526800:04:1323200:58:3421500:01:4627400:30:54 01:58:00 
27819959MGranville FieldsKeswick VA28500:19:4325200:03:5828001:04:0118400:01:3424000:28:47 01:58:00 
PlaceBibAgSNAMEcity/stateRankSWIMRankT1RankBIKERankT2RankRUNPENALTYTIMEDQ
2793937MMichael BakerGreencastle PA29400:19:5930700:05:3226901:01:4429500:02:3923900:28:37 01:58:29 
28030736MPaul JenkinsIvy VA20600:16:0427600:04:2129301:07:1125900:02:0424300:28:52 01:58:31 
2812237MRobb AlmyFredericksburg VA29700:20:1327500:04:1928501:05:043800:00:5623400:28:15 01:58:45 
28219050MDavid EvansFairfax VA19400:15:3913400:02:3929501:07:5126300:02:0626600:30:34 01:58:48Y
28328425MDan HollingerArlington VA22700:16:4827400:04:1928301:04:2411300:01:1428200:32:11 01:58:53 
2849243MMark BrownHudgins VA28200:19:2728500:04:3627801:03:2216100:01:2527600:31:14 02:00:03 
28524442MKenneth GoodwinBrandywine MD30600:22:2311500:02:3028901:05:5721000:01:4322300:27:40 02:00:12 
28664925MJason VitaleCentreville VA12600:14:1927700:04:2327601:02:3727300:02:1330300:37:19 02:00:48 
2878820MTrey BrightBristow VA29900:20:2229200:04:4430301:10:4012500:01:1714400:24:35 02:01:36 
28864828MCesar VenceWashington DC28300:19:2924700:03:4829201:06:3926100:02:0626000:29:58 02:01:58 
28938740MHans LynchArlington VA25000:17:3327800:04:2827001:01:4529000:02:3129700:35:53 02:02:08 
29064545MMichael VanmeterSpringfield VA27700:19:0631300:06:5428401:04:5228900:02:2924500:28:57 02:02:16 
29127070MSkip HartquistWashington DC25700:17:4828400:04:3629101:06:0919000:01:3528300:32:11 02:02:18 
29213860MAlonzo CrittendenHampton VA22500:16:4425600:03:5926201:00:5129100:02:3230600:38:51 02:02:56 
29349847MThomas PorterBumpass VA17100:15:0928700:04:3829001:06:0214300:01:2029900:36:06 02:03:13 
29462932MMark TaylorWashington DC31600:31:4924400:03:4622600:58:2422200:01:4822700:27:51 02:03:36 
29538346MRick LoyStafford VA28400:19:3927300:04:1827701:02:4325000:01:5929500:35:06 02:03:43 
29652622MRobert RikerTakoma Park MD27200:18:5021900:03:2630501:13:431700:00:4921300:27:09 02:03:55 
29738129MJoe LombardoLeesburg VA31400:25:5330400:05:2422900:58:2829700:02:4327700:31:32 02:03:58 
29814736MDion DavitianFairfax VA26000:17:5527200:04:1830101:09:5830200:02:4724700:29:02 02:03:58 
29936150MGlenn LawArlington VA28800:19:4824200:03:4629901:09:1226500:02:0725000:29:14 02:04:04 
30042341MMatt McKelveyKensington MD29200:19:5431400:07:0926401:01:0731000:03:1929000:33:23 02:04:51 
30129429MDaniel HuntleyFredericksburg VA28000:19:1626700:04:1230401:11:0127800:02:1527200:30:53 02:07:35 
30210628MSean CavanaughArlington VA27900:19:1028300:04:3430001:09:5614600:01:2129300:34:18 02:09:17 
30354027MJeffrey RoseSterling VA29500:20:0330000:05:1229701:08:2415400:01:2229200:34:18 02:09:17 
30424168MBill GoodingMontclair VA28700:19:4627100:04:1830201:10:0327000:02:1029400:34:19 02:10:34 
3059034MSequoia BrittonWinchester VA17200:15:0931100:06:0229601:08:1830800:03:1230900:40:19 02:12:59 
30645037MTarus NelsonFort Washington MD2200:11:2729800:05:0730801:15:3328800:02:2830500:38:45 02:13:19 
3074530MHunter BardenArlington VA25400:17:4425800:04:0030901:20:0415200:01:2228100:31:57 02:15:05 
30818230MScott EckesSuffolk VA30700:22:3525900:04:0029801:09:1028600:02:2530200:37:14 02:15:22 
30950250MLowell PrattOak Hill VA25300:17:4128600:04:3730701:15:2827700:02:1530400:37:40 02:17:39 
PlaceBibAgSNAMEcity/stateRankSWIMRankT1RankBIKERankT2RankRUNPENALTYTIMEDQ
3101242MMike Adams JrVirginia Beach VA25900:17:5422200:03:2831001:20:5726700:02:0830800:39:36 02:24:01 
31162441MJeffrey SyfuArlington VA30500:22:1531500:07:5830601:14:1231100:04:3131000:40:54 02:29:48 
31258422MBilal SiddiqiGermantown MD31500:27:4531200:06:1131101:21:3916300:01:2530000:36:06 02:33:04 
31341660MMarty McCallHerndon VA31200:23:5029500:05:0331201:24:1230900:03:1831200:46:06 02:42:29 
31416458MBarry DiciccoOakton VA14000:14:3411100:02:29       DNF 
31570141MKevin ReynoldsWashington DC14200:14:3631000:05:4329401:07:16     DNF 
31619723MJustin FerrellGlen Allen VA700:10:241100:01:33       DNF 
3172341MRick AmernickMcLean VA23000:16:5130500:05:26       DNF 

** Results are for the private use of participants and are the Intellectual Property of Set Up Events. Unauthorized use of these results is prohibited.